WHISKEYTOWN DAM (USBR) (WHI)

Elevation: 1210' · SACRAMENTO R basin · Operator: US Bureau of Reclamation

Provisional data, subject to change.
Query executed Monday at 19:41:40   clock

Select a sensor type for a plot of data.
Note: Reservoir Flows are daily averages.

Earlier

Date RES ELE    STORAGE    RES CHG    OUTFLOW    INFLOW    EVAP    RIV REL    PPT INC    RAIN    SPILL    DIS PWR   
 FEET   AF   AF   CFS   CFS   CFS   CFS   INCHES   INCHES   CFS   CFS  
08/17/2014 1208.78 237196 0 2384 2414 30 177 0.00 31.38 0 2207
08/18/2014 1208.61 236656 -540 2734 2495 33 177 0.00 31.38 0 2557
08/19/2014 1208.60 236624 -32 2296 2308 28 177 0.00 31.38 0 2119
08/20/2014 1208.64 236751 127 2110 2197 23 177 0.00 31.38 0 1933
08/21/2014 1208.43 236084 -667 2441 2124 19 177 0.00 31.38 0 2264
08/22/2014 1208.61 236656 572 1990 2298 20 177 0.00 31.38 0 1813
08/23/2014 1208.55 236465 -191 2293 2217 20 177 0.00 31.38 0 2116
08/24/2014 1208.53 236401 -64 1601 1601 32 177 0.00 31.38 0 1424
08/25/2014 1208.63 236719 318 1495 1683 28 177 0.00 31.38 0 1318
08/26/2014 1208.43 236084 -635 1030 729 19 177 0.00 31.38 0 853
08/27/2014 1208.40 235988 -96 710 682 20 177 0.00 31.38 0 533
08/28/2014 1208.72 237005 1017 195 723 15 177 0.00 31.38 0 18
08/29/2014 1208.87 237482 477 505 762 17 177 0.00 31.38 0 328
08/30/2014 1208.66 236814 -668 213 -102 22 177 0.00 31.38 0 36
08/31/2014 1208.49 236274 -540 191 -60 21 177 0.00 31.38 0 14
09/01/2014 1208.72 237005 731 191 590 30 177 0.00 31.38 0 14
09/02/2014 1208.75 237101 96 191 269 30 177 0.00 31.38 0 14
09/03/2014 1208.76 237132 31 191 227 20 177 0.00 31.38 0 14
09/04/2014 1208.67 236846 -286 191 77 30 177 0.00 31.38 0 14
09/05/2014 1208.66 236814 -32 193 208 31 177 0.00 31.38 0 16
09/06/2014 1208.65 236783 -31 195 194 15 177 0.00 31.38 0 18
09/07/2014 1208.54 236433 -350 191 48 33 177 0.00 31.38 0 14
09/08/2014 1208.62 236687 254 216 350 6 177 0.00 31.38 0 39
09/09/2014 1208.67 236846 159 209 324 35 177 0.00 31.38 0 32
09/10/2014 1208.81 237291 445 207 447 16 186 0.00 31.38 0 21
09/11/2014 1208.85 237418 127 192 287 31 177 0.00 31.38 0 15
09/12/2014 1209.01 237927 509 191 453 5 177 0.00 31.38 0 14
09/13/2014 1209.18 238471 544 329 627 24 177 0.00 31.38 0 152
09/14/2014 1209.12 238279 -192 191 111 17 177 0.00 31.38 0 14
09/15/2014 -- -- -- -- -- -- -- -- -- -- --

Later | Latest

Warning! This data is preliminary and subject to revision.

Download Data Now Download Data Now | Show WHI Map | Plot WHI Data | 1 Month WHI Data | Real-Time WHI Data | WHI Info